SWA1872 KSTL-KOMA
Flight info
| Callsign | SWA1872 |
|---|---|
| Flight time | 0h 55m |
| Altitude | 36000 |
| Route | N0439F360 WHRLI7 MCM DCT LMN MARWI4 |
| Aircraft | B38M/M-SDE1FGHILORVWXY/HB1 |
Departure
| Time | 2026-04-28 16:52 |
|---|---|
| Airport | St. Louis Lambert International Airport (KSTL) |
Arrival
| Time | 2026-04-28 17:48 |
|---|---|
| Airport | Eppley Airfield (KOMA) |
| Time | Latitude | Longitude | Altitude | Speed | Heading |
|---|---|---|---|---|---|
| 2026-04-28 16:26 | 38.73830 | -90.35633 | 630 ft | 0 kts | 209° |
| 2026-04-28 16:43 | 38.73835 | -90.35629 | 630 ft | 2 kts | 209° |
| 2026-04-28 16:43 | 38.73850 | -90.35621 | 630 ft | 3 kts | 196° |
| 2026-04-28 16:43 | 38.73869 | -90.35618 | 630 ft | 3 kts | 172° |
| 2026-04-28 16:43 | 38.73888 | -90.35627 | 630 ft | 3 kts | 148° |
| 2026-04-28 16:44 | 38.73903 | -90.35645 | 630 ft | 3 kts | 126° |
| 2026-04-28 16:44 | 38.73909 | -90.35657 | 630 ft | 0 kts | 119° |
| 2026-04-28 16:47 | 38.73909 | -90.35656 | 630 ft | 0 kts | 119° |
| 2026-04-28 16:47 | 38.73908 | -90.35656 | 630 ft | 0 kts | 119° |
| 2026-04-28 16:48 | 38.73906 | -90.35651 | 630 ft | 2 kts | 115° |
| 2026-04-28 16:48 | 38.73900 | -90.35604 | 630 ft | 8 kts | 98° |
| 2026-04-28 16:48 | 38.73922 | -90.35552 | 630 ft | 9 kts | 36° |
| 2026-04-28 16:48 | 38.73983 | -90.35497 | 630 ft | 13 kts | 47° |
| 2026-04-28 16:49 | 38.74019 | -90.35420 | 630 ft | 9 kts | 91° |
| 2026-04-28 16:49 | 38.73981 | -90.35331 | 630 ft | 14 kts | 122° |
| 2026-04-28 16:49 | 38.73923 | -90.35213 | 630 ft | 18 kts | 124° |
| 2026-04-28 16:49 | 38.73850 | -90.35065 | 630 ft | 19 kts | 123° |
| 2026-04-28 16:50 | 38.73777 | -90.34917 | 630 ft | 18 kts | 122° |
| 2026-04-28 16:50 | 38.73715 | -90.34792 | 630 ft | 15 kts | 122° |
| 2026-04-28 16:50 | 38.73698 | -90.34722 | 630 ft | 4 kts | 62° |
| 2026-04-28 16:50 | 38.73712 | -90.34711 | 630 ft | 3 kts | 22° |
| 2026-04-28 16:51 | 38.73746 | -90.34692 | 630 ft | 7 kts | 22° |
| 2026-04-28 16:51 | 38.73792 | -90.34672 | 630 ft | 5 kts | 335° |
| 2026-04-28 16:51 | 38.73798 | -90.34682 | 630 ft | 0 kts | 297° |
| 2026-04-28 16:51 | 38.73814 | -90.34720 | 630 ft | 23 kts | 297° |
| 2026-04-28 16:52 | 38.74034 | -90.35165 | 630 ft | 95 kts | 302° |
| 2026-04-28 16:52 | 38.74508 | -90.36118 | 644 ft | 155 kts | 304° |
| 2026-04-28 16:52 | 38.75088 | -90.37321 | 1351 ft | 158 kts | 302° |
| 2026-04-28 16:52 | 38.75676 | -90.38570 | 1998 ft | 175 kts | 301° |
| 2026-04-28 16:53 | 38.76363 | -90.39992 | 2514 ft | 197 kts | 302° |
| 2026-04-28 16:53 | 38.77130 | -90.41537 | 3212 ft | 213 kts | 301° |
| 2026-04-28 16:53 | 38.77938 | -90.43164 | 4046 ft | 221 kts | 298° |
| 2026-04-28 16:53 | 38.78795 | -90.44854 | 4879 ft | 231 kts | 298° |
| 2026-04-28 16:54 | 38.79692 | -90.46628 | 5635 ft | 244 kts | 297° |
| 2026-04-28 16:54 | 38.80630 | -90.48502 | 6470 ft | 252 kts | 297° |
| 2026-04-28 16:54 | 38.81574 | -90.50379 | 7386 ft | 256 kts | 298° |
| 2026-04-28 16:54 | 38.82226 | -90.51676 | 8006 ft | 258 kts | 298° |
| 2026-04-28 16:55 | 38.83528 | -90.54263 | 9187 ft | 263 kts | 298° |
| 2026-04-28 16:55 | 38.84524 | -90.56244 | 10050 ft | 266 kts | 298° |
| 2026-04-28 16:55 | 38.85554 | -90.58294 | 10653 ft | 280 kts | 298° |
| 2026-04-28 16:55 | 38.86638 | -90.60450 | 11239 ft | 292 kts | 298° |
| 2026-04-28 16:56 | 38.87745 | -90.62655 | 12038 ft | 295 kts | 298° |
| 2026-04-28 16:56 | 38.88861 | -90.64881 | 12857 ft | 297 kts | 298° |
| 2026-04-28 16:56 | 38.89985 | -90.67122 | 13669 ft | 299 kts | 297° |
| 2026-04-28 16:56 | 38.91104 | -90.69356 | 14461 ft | 301 kts | 297° |
| 2026-04-28 16:57 | 38.92243 | -90.71630 | 15248 ft | 303 kts | 297° |
| 2026-04-28 16:57 | 38.93401 | -90.73944 | 16023 ft | 305 kts | 296° |
| 2026-04-28 16:57 | 38.94536 | -90.76214 | 16749 ft | 307 kts | 296° |
| 2026-04-28 16:57 | 38.95694 | -90.78533 | 17460 ft | 309 kts | 296° |
| 2026-04-28 16:58 | 38.96857 | -90.80861 | 18145 ft | 311 kts | 296° |
| 2026-04-28 16:58 | 38.98029 | -90.83210 | 18806 ft | 312 kts | 295° |
| 2026-04-28 16:58 | 38.99205 | -90.85568 | 19442 ft | 314 kts | 295° |
| 2026-04-28 16:58 | 39.00390 | -90.87945 | 20061 ft | 316 kts | 295° |
| 2026-04-28 16:59 | 39.01575 | -90.90326 | 20659 ft | 317 kts | 295° |
| 2026-04-28 16:59 | 39.02770 | -90.92727 | 21239 ft | 319 kts | 294° |
| 2026-04-28 16:59 | 39.03964 | -90.95130 | 21798 ft | 320 kts | 294° |
| 2026-04-28 16:59 | 39.05169 | -90.97555 | 22341 ft | 322 kts | 294° |
| 2026-04-28 17:00 | 39.06373 | -90.99981 | 22866 ft | 323 kts | 294° |
| 2026-04-28 17:00 | 39.07577 | -91.02408 | 23372 ft | 325 kts | 294° |
| 2026-04-28 17:00 | 39.08796 | -91.04866 | 23867 ft | 326 kts | 294° |
| 2026-04-28 17:00 | 39.09996 | -91.07346 | 24328 ft | 325 kts | 291° |
| 2026-04-28 17:01 | 39.11077 | -91.09915 | 24771 ft | 327 kts | 290° |
| 2026-04-28 17:01 | 39.12165 | -91.12486 | 25229 ft | 329 kts | 290° |
| 2026-04-28 17:01 | 39.13275 | -91.15095 | 25608 ft | 332 kts | 291° |
| 2026-04-28 17:01 | 39.14391 | -91.17715 | 26014 ft | 334 kts | 291° |
| 2026-04-28 17:02 | 39.15497 | -91.20312 | 26406 ft | 336 kts | 291° |
| 2026-04-28 17:02 | 39.16261 | -91.22105 | 26671 ft | 337 kts | 291° |
| 2026-04-28 17:02 | 39.17713 | -91.25669 | 27149 ft | 339 kts | 290° |
| 2026-04-28 17:02 | 39.18784 | -91.28382 | 27531 ft | 341 kts | 290° |
| 2026-04-28 17:03 | 39.20951 | -91.33854 | 28225 ft | 345 kts | 290° |
| 2026-04-28 17:03 | 39.22047 | -91.36623 | 28540 ft | 348 kts | 290° |
| 2026-04-28 17:03 | 39.23151 | -91.39415 | 28860 ft | 350 kts | 290° |
| 2026-04-28 17:04 | 39.25358 | -91.45001 | 29494 ft | 353 kts | 290° |
| 2026-04-28 17:04 | 39.26474 | -91.47831 | 29803 ft | 355 kts | 290° |
| 2026-04-28 17:05 | 39.28728 | -91.53552 | 30407 ft | 358 kts | 291° |
| 2026-04-28 17:05 | 39.29861 | -91.56432 | 30697 ft | 360 kts | 291° |
| 2026-04-28 17:05 | 39.31001 | -91.59332 | 30981 ft | 362 kts | 291° |
| 2026-04-28 17:06 | 39.33273 | -91.65122 | 31521 ft | 365 kts | 291° |
| 2026-04-28 17:06 | 39.34425 | -91.68064 | 31760 ft | 368 kts | 291° |
| 2026-04-28 17:06 | 39.36755 | -91.74018 | 32211 ft | 373 kts | 291° |
| 2026-04-28 17:07 | 39.37928 | -91.77020 | 32424 ft | 376 kts | 291° |
| 2026-04-28 17:07 | 39.39115 | -91.80060 | 32556 ft | 380 kts | 291° |
| 2026-04-28 17:07 | 39.40313 | -91.83132 | 32767 ft | 383 kts | 291° |
| 2026-04-28 17:07 | 39.41497 | -91.86173 | 32978 ft | 385 kts | 291° |
| 2026-04-28 17:08 | 39.42706 | -91.89278 | 33257 ft | 386 kts | 291° |
| 2026-04-28 17:08 | 39.43911 | -91.92379 | 33526 ft | 387 kts | 291° |
| 2026-04-28 17:08 | 39.45123 | -91.95499 | 33784 ft | 388 kts | 291° |
| 2026-04-28 17:08 | 39.46335 | -91.98623 | 34039 ft | 389 kts | 291° |
| 2026-04-28 17:09 | 39.47549 | -92.01755 | 34290 ft | 389 kts | 291° |
| 2026-04-28 17:09 | 39.48764 | -92.04895 | 34540 ft | 390 kts | 291° |
| 2026-04-28 17:09 | 39.49971 | -92.08014 | 34776 ft | 391 kts | 291° |
| 2026-04-28 17:09 | 39.51191 | -92.11172 | 35009 ft | 392 kts | 291° |
| 2026-04-28 17:10 | 39.52409 | -92.14329 | 35236 ft | 393 kts | 291° |
| 2026-04-28 17:10 | 39.53635 | -92.17510 | 35458 ft | 394 kts | 291° |
| 2026-04-28 17:10 | 39.54863 | -92.20698 | 35640 ft | 395 kts | 292° |
| 2026-04-28 17:10 | 39.56093 | -92.23895 | 35817 ft | 397 kts | 292° |
| 2026-04-28 17:11 | 39.57325 | -92.27101 | 36028 ft | 398 kts | 292° |
| 2026-04-28 17:11 | 39.58549 | -92.30291 | 36134 ft | 401 kts | 292° |
| 2026-04-28 17:11 | 39.61025 | -92.36751 | 36141 ft | 399 kts | 292° |
| 2026-04-28 17:12 | 39.63497 | -92.43210 | 36142 ft | 399 kts | 292° |
| 2026-04-28 17:12 | 39.66313 | -92.49442 | 36148 ft | 404 kts | 303° |
| 2026-04-28 17:13 | 39.69883 | -92.55082 | 36141 ft | 405 kts | 304° |
| 2026-04-28 17:13 | 39.73480 | -92.60660 | 36141 ft | 405 kts | 304° |
| 2026-04-28 17:14 | 39.77104 | -92.66268 | 36141 ft | 405 kts | 304° |
| 2026-04-28 17:14 | 39.80118 | -92.70935 | 36141 ft | 405 kts | 304° |
| 2026-04-28 17:15 | 39.83739 | -92.76552 | 36142 ft | 404 kts | 304° |
| 2026-04-28 17:15 | 39.87338 | -92.82146 | 36141 ft | 403 kts | 304° |
| 2026-04-28 17:16 | 39.90936 | -92.87747 | 36141 ft | 403 kts | 304° |
| 2026-04-28 17:16 | 39.94527 | -92.93349 | 36141 ft | 402 kts | 304° |
| 2026-04-28 17:17 | 39.98112 | -92.98950 | 36141 ft | 402 kts | 304° |
| 2026-04-28 17:17 | 40.01672 | -93.04522 | 36141 ft | 402 kts | 304° |
| 2026-04-28 17:18 | 40.05246 | -93.10127 | 36141 ft | 401 kts | 304° |
| 2026-04-28 17:18 | 40.08812 | -93.15730 | 36141 ft | 401 kts | 304° |
| 2026-04-28 17:19 | 40.12374 | -93.21336 | 36141 ft | 401 kts | 304° |
| 2026-04-28 17:19 | 40.15935 | -93.26951 | 36141 ft | 400 kts | 304° |
| 2026-04-28 17:20 | 40.18886 | -93.31610 | 36141 ft | 400 kts | 304° |
| 2026-04-28 17:20 | 40.23030 | -93.38167 | 36140 ft | 399 kts | 304° |
| 2026-04-28 17:21 | 40.26541 | -93.43733 | 36141 ft | 399 kts | 304° |
| 2026-04-28 17:22 | 40.31840 | -93.52152 | 36141 ft | 399 kts | 304° |
| 2026-04-28 17:22 | 40.35366 | -93.57767 | 36141 ft | 399 kts | 304° |
| 2026-04-28 17:23 | 40.40656 | -93.66210 | 36142 ft | 398 kts | 303° |
| 2026-04-28 17:23 | 40.44148 | -93.71796 | 36142 ft | 398 kts | 303° |
| 2026-04-28 17:24 | 40.47658 | -93.77421 | 36142 ft | 398 kts | 303° |
| 2026-04-28 17:24 | 40.51169 | -93.83057 | 36142 ft | 398 kts | 303° |
| 2026-04-28 17:25 | 40.56420 | -93.91501 | 36141 ft | 397 kts | 303° |
| 2026-04-28 17:26 | 40.59388 | -93.97454 | 36149 ft | 387 kts | 286° |
| 2026-04-28 17:26 | 40.60830 | -94.04254 | 36142 ft | 386 kts | 281° |
| 2026-04-28 17:27 | 40.62057 | -94.11150 | 36141 ft | 387 kts | 280° |
| 2026-04-28 17:27 | 40.63224 | -94.18071 | 36140 ft | 387 kts | 279° |
| 2026-04-28 17:27 | 40.63806 | -94.21582 | 35629 ft | 395 kts | 279° |
| 2026-04-28 17:28 | 40.64390 | -94.25122 | 34702 ft | 398 kts | 279° |
| 2026-04-28 17:28 | 40.65561 | -94.32233 | 32792 ft | 392 kts | 279° |
| 2026-04-28 17:28 | 40.66127 | -94.35680 | 31843 ft | 378 kts | 278° |
| 2026-04-28 17:29 | 40.66671 | -94.39006 | 30921 ft | 365 kts | 278° |
| 2026-04-28 17:29 | 40.67195 | -94.42209 | 30026 ft | 352 kts | 277° |
| 2026-04-28 17:29 | 40.67700 | -94.45300 | 29063 ft | 341 kts | 277° |
| 2026-04-28 17:30 | 40.68680 | -94.51328 | 26826 ft | 330 kts | 276° |
| 2026-04-28 17:30 | 40.69628 | -94.57177 | 25462 ft | 321 kts | 275° |
| 2026-04-28 17:30 | 40.70088 | -94.60020 | 25100 ft | 314 kts | 275° |
| 2026-04-28 17:31 | 40.70540 | -94.62816 | 24676 ft | 312 kts | 275° |
| 2026-04-28 17:31 | 40.71446 | -94.68440 | 23686 ft | 319 kts | 275° |
| 2026-04-28 17:32 | 40.72367 | -94.74175 | 22640 ft | 320 kts | 275° |
| 2026-04-28 17:32 | 40.72826 | -94.77043 | 22118 ft | 319 kts | 275° |
| 2026-04-28 17:32 | 40.73284 | -94.79909 | 21596 ft | 319 kts | 275° |
| 2026-04-28 17:32 | 40.73742 | -94.82775 | 21075 ft | 319 kts | 275° |
| 2026-04-28 17:33 | 40.74200 | -94.85651 | 20550 ft | 320 kts | 275° |
| 2026-04-28 17:33 | 40.74657 | -94.88528 | 20019 ft | 320 kts | 275° |
| 2026-04-28 17:33 | 40.75107 | -94.91359 | 19496 ft | 320 kts | 275° |
| 2026-04-28 17:33 | 40.75414 | -94.93298 | 19137 ft | 319 kts | 275° |
| 2026-04-28 17:34 | 40.76015 | -94.97092 | 18436 ft | 318 kts | 275° |
| 2026-04-28 17:34 | 40.76465 | -94.99939 | 17902 ft | 316 kts | 275° |
| 2026-04-28 17:34 | 40.76914 | -95.02775 | 17303 ft | 315 kts | 275° |
| 2026-04-28 17:34 | 40.77360 | -95.05608 | 16717 ft | 314 kts | 275° |
| 2026-04-28 17:35 | 40.78079 | -95.08347 | 16111 ft | 326 kts | 290° |
| 2026-04-28 17:35 | 40.79385 | -95.10859 | 15581 ft | 330 kts | 298° |
| 2026-04-28 17:35 | 40.80769 | -95.13255 | 15072 ft | 327 kts | 299° |
| 2026-04-28 17:35 | 40.82160 | -95.15620 | 14567 ft | 324 kts | 300° |
| 2026-04-28 17:36 | 40.83547 | -95.17956 | 14055 ft | 322 kts | 300° |
| 2026-04-28 17:36 | 40.84931 | -95.20272 | 13542 ft | 319 kts | 301° |
| 2026-04-28 17:36 | 40.86302 | -95.22561 | 13027 ft | 317 kts | 301° |
| 2026-04-28 17:36 | 40.87649 | -95.24806 | 12525 ft | 314 kts | 302° |
| 2026-04-28 17:37 | 40.89000 | -95.27061 | 12021 ft | 311 kts | 302° |
| 2026-04-28 17:37 | 40.90338 | -95.29294 | 11521 ft | 308 kts | 303° |
| 2026-04-28 17:37 | 40.91664 | -95.31508 | 11087 ft | 303 kts | 303° |
| 2026-04-28 17:37 | 40.92948 | -95.33657 | 10801 ft | 294 kts | 303° |
| 2026-04-28 17:38 | 40.94196 | -95.35745 | 10539 ft | 284 kts | 303° |
| 2026-04-28 17:38 | 40.95404 | -95.37767 | 10289 ft | 274 kts | 303° |
| 2026-04-28 17:38 | 40.96564 | -95.39709 | 10083 ft | 264 kts | 303° |
| 2026-04-28 17:38 | 40.97675 | -95.41571 | 9901 ft | 253 kts | 303° |
| 2026-04-28 17:39 | 40.98770 | -95.43406 | 9595 ft | 255 kts | 303° |
| 2026-04-28 17:39 | 40.99855 | -95.45230 | 9213 ft | 256 kts | 303° |
| 2026-04-28 17:39 | 41.02046 | -95.48912 | 8410 ft | 252 kts | 303° |
| 2026-04-28 17:40 | 41.03125 | -95.50726 | 8033 ft | 249 kts | 303° |
| 2026-04-28 17:40 | 41.04189 | -95.52519 | 7660 ft | 247 kts | 303° |
| 2026-04-28 17:40 | 41.05249 | -95.54303 | 7288 ft | 244 kts | 303° |
| 2026-04-28 17:40 | 41.06294 | -95.56064 | 6919 ft | 242 kts | 303° |
| 2026-04-28 17:41 | 41.07332 | -95.57814 | 6550 ft | 239 kts | 303° |
| 2026-04-28 17:41 | 41.08353 | -95.59538 | 6187 ft | 237 kts | 303° |
| 2026-04-28 17:41 | 41.09371 | -95.61256 | 5826 ft | 235 kts | 303° |
| 2026-04-28 17:41 | 41.10358 | -95.62925 | 5483 ft | 232 kts | 305° |
| 2026-04-28 17:42 | 41.11336 | -95.64576 | 5251 ft | 224 kts | 306° |
| 2026-04-28 17:42 | 41.11980 | -95.65662 | 5105 ft | 218 kts | 307° |
| 2026-04-28 17:42 | 41.13193 | -95.67714 | 4835 ft | 208 kts | 308° |
| 2026-04-28 17:42 | 41.14069 | -95.69194 | 4643 ft | 200 kts | 309° |
| 2026-04-28 17:43 | 41.14914 | -95.70625 | 4463 ft | 195 kts | 309° |
| 2026-04-28 17:43 | 41.15759 | -95.72058 | 4310 ft | 199 kts | 309° |
| 2026-04-28 17:43 | 41.16622 | -95.73522 | 4155 ft | 204 kts | 309° |
| 2026-04-28 17:43 | 41.17489 | -95.75006 | 3954 ft | 206 kts | 308° |
| 2026-04-28 17:44 | 41.18163 | -95.76654 | 3795 ft | 198 kts | 298° |
| 2026-04-28 17:44 | 41.18782 | -95.78229 | 3615 ft | 189 kts | 303° |
| 2026-04-28 17:44 | 41.19665 | -95.79502 | 3330 ft | 185 kts | 319° |
| 2026-04-28 17:44 | 41.20682 | -95.80513 | 3081 ft | 181 kts | 326° |
| 2026-04-28 17:45 | 41.21715 | -95.81455 | 2817 ft | 178 kts | 327° |
| 2026-04-28 17:45 | 41.22690 | -95.82367 | 2600 ft | 165 kts | 326° |
| 2026-04-28 17:45 | 41.23591 | -95.83218 | 2383 ft | 150 kts | 326° |
| 2026-04-28 17:45 | 41.24416 | -95.84000 | 2147 ft | 142 kts | 326° |
| 2026-04-28 17:46 | 41.25214 | -95.84755 | 1962 ft | 140 kts | 326° |
| 2026-04-28 17:46 | 41.26000 | -95.85501 | 1802 ft | 141 kts | 326° |
| 2026-04-28 17:46 | 41.26791 | -95.86240 | 1613 ft | 136 kts | 325° |
| 2026-04-28 17:46 | 41.27563 | -95.86975 | 1421 ft | 138 kts | 324° |
| 2026-04-28 17:47 | 41.28333 | -95.87722 | 1256 ft | 136 kts | 325° |
| 2026-04-28 17:47 | 41.29114 | -95.88461 | 1079 ft | 140 kts | 326° |
| 2026-04-28 17:47 | 41.29876 | -95.89175 | 997 ft | 117 kts | 323° |
| 2026-04-28 17:47 | 41.30251 | -95.89532 | 997 ft | 82 kts | 325° |
| 2026-04-28 17:48 | 41.30651 | -95.89912 | 997 ft | 33 kts | 324° |
| 2026-04-28 17:48 | 41.30784 | -95.90039 | 997 ft | 16 kts | 322° |
| 2026-04-28 17:48 | 41.30791 | -95.90142 | 997 ft | 12 kts | 218° |
| 2026-04-28 17:48 | 41.30730 | -95.90166 | 997 ft | 11 kts | 144° |
| 2026-04-28 17:49 | 41.30654 | -95.90093 | 997 ft | 16 kts | 144° |
| 2026-04-28 17:49 | 41.30552 | -95.89993 | 997 ft | 20 kts | 143° |
| 2026-04-28 17:49 | 41.30446 | -95.89885 | 997 ft | 19 kts | 144° |
| 2026-04-28 17:49 | 41.30368 | -95.89819 | 997 ft | 8 kts | 149° |
| 2026-04-28 17:50 | 41.30318 | -95.89817 | 997 ft | 9 kts | 221° |
| 2026-04-28 17:50 | 41.30264 | -95.89875 | 997 ft | 10 kts | 172° |
| 2026-04-28 17:50 | 41.30223 | -95.89811 | 997 ft | 9 kts | 135° |
| 2026-04-28 17:50 | 41.30180 | -95.89746 | 997 ft | 10 kts | 129° |
| 2026-04-28 17:51 | 41.30142 | -95.89740 | 997 ft | 5 kts | 259° |
| 2026-04-28 17:51 | 41.30132 | -95.89782 | 997 ft | 0 kts | 251° |
| 2026-04-28 17:51 | 41.30132 | -95.89783 | 997 ft | 0 kts | 251° |